createdAt,value
2023-10-20T00:00:57.945Z,16.90
2023-10-20T00:03:45.450Z,17.00
2023-10-20T00:06:32.849Z,17.10
2023-10-20T00:09:21.482Z,17.00
2023-10-20T00:12:08.816Z,17.00
2023-10-20T00:14:56.994Z,17.00
2023-10-20T00:17:44.754Z,17.00
2023-10-20T00:20:32.709Z,16.90
2023-10-20T00:23:20.151Z,17.00
2023-10-20T00:26:07.911Z,16.90
2023-10-20T00:28:55.320Z,16.90
2023-10-20T00:31:43.337Z,16.80
2023-10-20T00:34:30.993Z,16.70
2023-10-20T00:37:18.454Z,16.70
2023-10-20T00:40:10.620Z,16.80
2023-10-20T00:42:58.269Z,16.70
2023-10-20T00:45:47.253Z,16.80
2023-10-20T00:48:36.945Z,16.70
2023-10-20T00:51:27.031Z,16.70
2023-10-20T00:54:16.769Z,16.70
2023-10-20T00:57:04.800Z,16.70
2023-10-20T00:59:52.458Z,16.80
2023-10-20T01:02:40.166Z,16.90
2023-10-20T01:05:28.038Z,16.90
2023-10-20T01:08:15.824Z,16.90
2023-10-20T01:11:03.317Z,16.80
2023-10-20T01:13:51.515Z,16.80
2023-10-20T01:16:39.170Z,16.80
2023-10-20T01:19:26.722Z,16.80
2023-10-20T01:22:14.373Z,16.80
2023-10-20T01:25:02.341Z,16.80
2023-10-20T01:27:49.666Z,16.80
2023-10-20T01:30:37.571Z,16.80
2023-10-20T01:33:25.061Z,16.80
2023-10-20T01:36:12.636Z,16.80
2023-10-20T01:39:00.794Z,16.70
2023-10-20T01:41:48.363Z,16.70
2023-10-20T01:44:35.906Z,16.70
2023-10-20T01:47:23.365Z,16.80
2023-10-20T01:50:11.482Z,16.80
2023-10-20T01:52:58.681Z,16.80
2023-10-20T01:55:52.001Z,16.70
2023-10-20T01:58:39.636Z,16.70
2023-10-20T02:01:28.022Z,16.70
2023-10-20T02:04:16.105Z,16.70
2023-10-20T02:07:03.496Z,16.60
2023-10-20T02:09:51.573Z,16.60
2023-10-20T02:12:38.874Z,16.70
2023-10-20T02:15:26.461Z,16.70
2023-10-20T02:18:14.374Z,16.60
2023-10-20T02:21:04.849Z,16.50
2023-10-20T02:23:52.590Z,16.50
2023-10-20T02:26:40.373Z,16.60
2023-10-20T02:29:28.046Z,16.40
2023-10-20T02:32:15.848Z,16.40
2023-10-20T02:35:03.832Z,16.50
2023-10-20T02:37:51.293Z,16.50
2023-10-20T02:40:38.800Z,16.50
2023-10-20T02:43:26.522Z,16.40
2023-10-20T02:46:17.656Z,16.40
2023-10-20T02:49:05.522Z,16.40
2023-10-20T02:51:53.093Z,16.30
2023-10-20T02:54:40.963Z,16.50
2023-10-20T02:57:28.225Z,16.30
2023-10-20T03:00:17.772Z,16.40
2023-10-20T03:03:05.388Z,16.40
2023-10-20T03:05:52.968Z,16.40
2023-10-20T03:08:41.485Z,16.40
2023-10-20T03:11:28.722Z,16.30
2023-10-20T03:14:16.131Z,16.30
2023-10-20T03:17:03.380Z,16.30
2023-10-20T03:19:51.006Z,16.20
2023-10-20T03:22:38.539Z,16.20
2023-10-20T03:25:27.106Z,16.10
2023-10-20T03:28:14.811Z,16.00
2023-10-20T03:31:04.194Z,16.00
2023-10-20T03:33:52.029Z,16.10
2023-10-20T03:36:39.503Z,16.10
2023-10-20T03:39:28.681Z,16.20
2023-10-20T03:42:16.238Z,16.30
2023-10-20T03:45:03.857Z,16.30
2023-10-20T03:47:51.501Z,16.30
2023-10-20T03:50:41.362Z,16.30
2023-10-20T03:53:28.762Z,16.40
2023-10-20T03:56:17.656Z,16.30
2023-10-20T03:59:04.710Z,16.20
2023-10-20T04:01:54.852Z,16.30
2023-10-20T04:04:42.366Z,16.20
2023-10-20T04:07:29.889Z,16.10
2023-10-20T04:10:19.256Z,16.20
2023-10-20T04:13:08.753Z,16.20
2023-10-20T04:15:56.359Z,16.10
2023-10-20T04:18:45.135Z,16.10
2023-10-20T04:21:33.371Z,16.20
2023-10-20T04:24:22.338Z,16.30
2023-10-20T04:27:12.304Z,16.30
2023-10-20T04:30:18.679Z,16.30
2023-10-20T04:33:25.026Z,16.30
2023-10-20T04:36:29.881Z,16.40
2023-10-20T04:39:34.901Z,16.20
2023-10-20T04:42:24.149Z,16.10
2023-10-20T04:45:23.560Z,16.10
2023-10-20T04:48:18.547Z,16.10
2023-10-20T04:51:24.229Z,16.00
2023-10-20T04:54:13.401Z,15.90
2023-10-20T04:57:05.149Z,15.80
2023-10-20T05:00:12.747Z,15.80
2023-10-20T05:03:02.072Z,15.70
2023-10-20T05:05:56.783Z,15.70
2023-10-20T05:08:44.090Z,15.60
2023-10-20T05:11:31.830Z,15.60
2023-10-20T05:14:19.197Z,15.70
2023-10-20T05:17:08.258Z,15.70
2023-10-20T05:19:55.504Z,15.60
2023-10-20T05:22:43.858Z,15.50
2023-10-20T05:25:31.234Z,15.50
2023-10-20T05:28:19.060Z,15.50
2023-10-20T05:31:06.500Z,15.50
2023-10-20T05:33:54.274Z,15.40
2023-10-20T05:36:43.596Z,15.30
2023-10-20T05:39:31.115Z,15.30
2023-10-20T05:42:18.604Z,15.30
2023-10-20T05:45:14.142Z,15.20
2023-10-20T05:48:02.124Z,15.30
2023-10-20T05:50:51.420Z,15.30
2023-10-20T05:53:38.852Z,15.30
2023-10-20T05:56:26.341Z,15.30
2023-10-20T05:59:13.439Z,15.20
2023-10-20T06:02:00.842Z,15.20
2023-10-20T06:04:48.353Z,15.30
2023-10-20T06:07:35.770Z,15.40
2023-10-20T06:10:26.217Z,15.40
2023-10-20T06:13:14.978Z,15.50
2023-10-20T06:16:12.849Z,15.60
2023-10-20T06:19:01.124Z,15.60
2023-10-20T06:21:48.410Z,15.50
2023-10-20T06:24:35.962Z,15.50
2023-10-20T06:27:23.485Z,15.50
2023-10-20T06:30:15.998Z,15.40
2023-10-20T06:33:11.293Z,15.30
2023-10-20T06:36:00.375Z,15.30
2023-10-20T06:38:47.658Z,15.20
2023-10-20T06:41:36.201Z,15.10
2023-10-20T06:44:24.094Z,15.10
2023-10-20T06:47:12.375Z,15.10
2023-10-20T06:49:59.533Z,15.20
2023-10-20T06:52:47.118Z,15.20
2023-10-20T06:58:24.092Z,15.10
2023-10-20T07:01:11.772Z,15.10
2023-10-20T07:03:59.253Z,15.10
2023-10-20T07:06:47.146Z,15.00
2023-10-20T07:09:34.428Z,15.10
2023-10-20T07:12:21.895Z,15.10
2023-10-20T07:15:09.909Z,15.00
2023-10-20T07:17:57.487Z,15.00
2023-10-20T07:20:45.200Z,14.90
2023-10-20T07:23:34.351Z,15.00
2023-10-20T07:26:21.740Z,14.90
2023-10-20T07:29:09.900Z,15.00
2023-10-20T07:31:57.580Z,15.00
2023-10-20T07:34:45.336Z,15.00
2023-10-20T07:37:33.935Z,15.10
2023-10-20T07:40:24.078Z,15.10
2023-10-20T07:43:12.219Z,15.10
2023-10-20T07:45:59.581Z,15.20
2023-10-20T07:48:47.393Z,15.20
2023-10-20T07:51:35.064Z,15.10
2023-10-20T07:54:22.595Z,15.00
2023-10-20T07:57:10.661Z,14.90
2023-10-20T07:59:58.109Z,15.00
2023-10-20T08:02:45.658Z,15.10
2023-10-20T08:05:33.820Z,15.10
2023-10-20T08:08:21.798Z,15.10
2023-10-20T08:11:08.896Z,15.10
2023-10-20T08:13:56.713Z,15.00
2023-10-20T08:16:44.231Z,15.00
2023-10-20T08:19:32.663Z,14.90
2023-10-20T08:22:20.445Z,15.00
2023-10-20T08:25:10.058Z,15.10
2023-10-20T08:27:58.778Z,15.10
2023-10-20T08:30:46.166Z,15.10
2023-10-20T08:33:34.814Z,15.20
2023-10-20T08:36:23.181Z,15.30
2023-10-20T08:39:17.859Z,15.20
2023-10-20T08:42:07.528Z,15.30
2023-10-20T08:44:54.846Z,15.30
2023-10-20T08:47:45.981Z,15.30
2023-10-20T08:50:34.331Z,15.40
2023-10-20T08:53:23.651Z,15.50
2023-10-20T08:56:13.240Z,15.70
2023-10-20T08:59:00.575Z,15.80
2023-10-20T09:01:48.491Z,15.90
2023-10-20T09:04:36.549Z,16.00
2023-10-20T09:07:24.647Z,15.80
2023-10-20T09:10:12.476Z,15.80
2023-10-20T09:13:00.013Z,15.90
2023-10-20T09:15:49.834Z,15.80
2023-10-20T09:18:45.694Z,16.00
2023-10-20T09:21:33.177Z,16.00
2023-10-20T09:24:20.589Z,15.90
2023-10-20T09:27:10.184Z,15.80
2023-10-20T09:29:58.532Z,15.80
2023-10-20T09:32:47.960Z,15.80
2023-10-20T09:35:39.535Z,15.90
2023-10-20T09:38:28.452Z,16.20
2023-10-20T09:41:18.928Z,16.30
2023-10-20T09:44:08.623Z,16.40
2023-10-20T09:47:05.270Z,16.50
2023-10-20T09:49:52.950Z,16.50
2023-10-20T09:52:43.990Z,16.60
2023-10-20T09:55:32.067Z,16.70
2023-10-20T09:58:28.951Z,16.60
2023-10-20T10:01:17.939Z,16.70
2023-10-20T10:04:08.837Z,16.80
2023-10-20T10:06:56.873Z,16.80
2023-10-20T10:09:46.587Z,17.00
2023-10-20T10:12:34.070Z,16.90
2023-10-20T10:15:23.120Z,16.80
2023-10-20T10:18:15.156Z,16.90
2023-10-20T10:21:05.119Z,17.00
2023-10-20T10:24:16.137Z,17.10
2023-10-20T10:27:07.882Z,17.10
2023-10-20T10:30:01.363Z,17.00
2023-10-20T10:32:49.797Z,17.20
2023-10-20T10:35:42.157Z,17.70
2023-10-20T10:38:32.413Z,18.00
2023-10-20T10:41:26.670Z,18.00
2023-10-20T10:44:14.455Z,17.90
2023-10-20T10:47:04.405Z,17.80
2023-10-20T10:49:53.297Z,17.80
2023-10-20T10:52:40.982Z,17.80
2023-10-20T10:55:28.833Z,18.10
2023-10-20T10:58:17.136Z,18.30
2023-10-20T11:01:04.896Z,18.20
2023-10-20T11:03:52.952Z,18.30
2023-10-20T11:06:40.857Z,18.40
2023-10-20T11:09:28.604Z,18.40
2023-10-20T11:12:18.902Z,18.50
2023-10-20T11:15:06.419Z,18.80
2023-10-20T11:17:53.761Z,19.00
2023-10-20T11:20:44.712Z,18.90
2023-10-20T11:23:35.706Z,19.00
2023-10-20T11:26:24.027Z,19.30
2023-10-20T11:29:12.004Z,19.40
2023-10-20T11:32:05.244Z,19.40
2023-10-20T11:34:52.181Z,19.50
2023-10-20T11:37:39.869Z,19.60
2023-10-20T11:40:28.273Z,19.60
2023-10-20T11:43:15.620Z,19.50
2023-10-20T11:46:02.963Z,19.80
2023-10-20T11:48:51.531Z,19.90
2023-10-20T11:51:41.036Z,19.80
2023-10-20T11:54:28.289Z,19.80
2023-10-20T11:57:15.666Z,19.80
2023-10-20T12:00:04.895Z,19.70
2023-10-20T12:02:52.185Z,19.60
2023-10-20T12:05:41.207Z,19.50
2023-10-20T12:08:30.615Z,19.50
2023-10-20T12:11:19.558Z,19.40
2023-10-20T12:14:07.453Z,19.50
2023-10-20T12:16:55.156Z,19.50
2023-10-20T12:19:42.568Z,19.50
2023-10-20T12:22:29.941Z,19.40
2023-10-20T12:25:17.298Z,19.30
2023-10-20T12:28:06.064Z,19.20
2023-10-20T12:30:54.026Z,19.10
2023-10-20T12:33:41.793Z,18.90
2023-10-20T12:36:30.389Z,18.90
2023-10-20T12:39:19.792Z,18.90
2023-10-20T12:42:06.932Z,18.90
2023-10-20T12:44:54.553Z,18.70
2023-10-20T12:47:41.939Z,18.60
2023-10-20T12:50:31.694Z,18.70
2023-10-20T12:53:18.814Z,18.60
2023-10-20T12:56:06.699Z,18.60
2023-10-20T12:58:54.465Z,18.60
2023-10-20T13:01:42.197Z,18.50
2023-10-20T13:04:29.671Z,18.50
2023-10-20T13:07:17.085Z,18.50
2023-10-20T13:10:05.646Z,18.50
2023-10-20T13:12:54.181Z,18.50
2023-10-20T13:15:42.062Z,18.20
2023-10-20T13:18:29.520Z,17.90
2023-10-20T13:21:16.769Z,17.80
2023-10-20T13:24:04.703Z,17.80
2023-10-20T13:26:52.438Z,18.00
2023-10-20T13:29:40.083Z,17.90
2023-10-20T13:32:28.473Z,17.80
2023-10-20T13:35:17.459Z,17.90
2023-10-20T13:38:17.560Z,18.10
2023-10-20T13:40:53.810Z,18.20
2023-10-20T13:43:43.040Z,18.40
2023-10-20T13:46:30.813Z,18.60
2023-10-20T13:49:19.837Z,18.60
2023-10-20T13:52:07.787Z,18.40
2023-10-20T13:54:55.365Z,18.30
2023-10-20T13:57:42.573Z,18.30
2023-10-20T14:00:30.678Z,18.40
2023-10-20T14:03:18.176Z,18.40
2023-10-20T14:06:07.191Z,18.50
2023-10-20T14:08:54.794Z,18.60
2023-10-20T14:11:42.688Z,18.80
2023-10-20T14:14:30.199Z,18.70
2023-10-20T14:17:17.717Z,18.60
2023-10-20T14:20:05.480Z,18.60
2023-10-20T14:22:52.862Z,18.30
2023-10-20T14:25:40.291Z,18.20
2023-10-20T14:28:35.851Z,18.20
2023-10-20T14:31:23.177Z,18.00
2023-10-20T14:34:11.525Z,18.00
2023-10-20T14:36:59.158Z,17.90
2023-10-20T14:39:46.929Z,17.90
2023-10-20T14:42:33.965Z,17.90
2023-10-20T14:45:21.676Z,17.70
2023-10-20T14:48:09.160Z,17.70
2023-10-20T14:50:56.981Z,17.60
2023-10-20T14:53:45.021Z,17.60
2023-10-20T14:56:32.305Z,17.70
2023-10-20T14:59:19.918Z,17.70
2023-10-20T15:02:08.817Z,17.60
2023-10-20T15:04:57.546Z,17.40
2023-10-20T15:07:45.290Z,17.40
2023-10-20T15:10:32.867Z,17.40
2023-10-20T15:13:21.719Z,17.40
2023-10-20T15:16:10.724Z,17.50
2023-10-20T15:18:58.927Z,17.60
2023-10-20T15:21:46.476Z,17.70
2023-10-20T15:24:33.850Z,17.70
2023-10-20T15:27:21.591Z,17.70
2023-10-20T15:30:10.352Z,17.70
2023-10-20T15:32:57.500Z,17.60
2023-10-20T15:35:44.704Z,17.50
2023-10-20T15:38:33.342Z,17.60
2023-10-20T15:41:22.919Z,17.70
2023-10-20T15:44:11.015Z,17.80
2023-10-20T15:46:58.639Z,18.00
2023-10-20T15:49:47.063Z,18.10
2023-10-20T15:52:34.608Z,18.10
2023-10-20T15:55:22.024Z,18.20
2023-10-20T15:58:10.035Z,18.10
2023-10-20T16:01:03.365Z,18.10
2023-10-20T16:03:51.062Z,18.00
2023-10-20T16:06:40.701Z,17.90
2023-10-20T16:09:28.515Z,17.90
2023-10-20T16:12:16.367Z,17.70
2023-10-20T16:15:10.487Z,17.50
2023-10-20T16:17:57.852Z,17.30
2023-10-20T16:20:46.775Z,17.20
2023-10-20T16:23:34.085Z,17.30
2023-10-20T16:26:21.521Z,17.20
2023-10-20T16:29:09.721Z,17.20
2023-10-20T16:31:56.862Z,17.10
2023-10-20T16:34:44.365Z,17.10
2023-10-20T16:37:31.937Z,17.10
2023-10-20T16:40:19.567Z,17.10
2023-10-20T16:43:08.402Z,17.20
2023-10-20T16:45:56.220Z,17.20
2023-10-20T16:48:43.606Z,17.20
2023-10-20T16:51:31.381Z,17.20
2023-10-20T16:54:18.624Z,17.10
2023-10-20T16:57:06.512Z,17.10
2023-10-20T16:59:54.543Z,17.10
2023-10-20T17:02:42.110Z,17.10
2023-10-20T17:05:29.653Z,17.10
2023-10-20T17:08:17.038Z,17.10
2023-10-20T17:11:05.589Z,16.90
2023-10-20T17:13:53.250Z,16.80
2023-10-20T17:16:42.666Z,16.80
2023-10-20T17:19:29.981Z,16.60
2023-10-20T17:22:17.567Z,16.40
2023-10-20T17:25:06.529Z,16.20
2023-10-20T17:27:54.095Z,16.10
2023-10-20T17:30:41.583Z,16.10
2023-10-20T17:33:29.222Z,16.20
2023-10-20T17:36:17.017Z,16.10
2023-10-20T17:39:05.940Z,16.10
2023-10-20T17:41:53.114Z,16.10
2023-10-20T17:44:40.706Z,16.10
2023-10-20T17:47:29.624Z,16.00
2023-10-20T17:50:17.084Z,15.80
2023-10-20T17:53:05.606Z,15.60
2023-10-20T17:55:53.018Z,15.40
2023-10-20T17:58:40.667Z,15.40
2023-10-20T18:01:28.711Z,15.50
2023-10-20T18:04:16.022Z,15.40
2023-10-20T18:07:04.021Z,15.40
2023-10-20T18:09:51.705Z,15.40
2023-10-20T18:12:39.479Z,15.50
2023-10-20T18:15:26.806Z,15.40
2023-10-20T18:18:14.639Z,15.40
2023-10-20T18:21:02.140Z,15.40
2023-10-20T18:23:52.039Z,15.30
2023-10-20T18:26:39.933Z,15.40
2023-10-20T18:29:27.584Z,15.40
2023-10-20T18:32:15.155Z,15.40
2023-10-20T18:35:02.796Z,15.50
2023-10-20T18:37:50.587Z,15.60
2023-10-20T18:40:37.973Z,15.80
2023-10-20T18:43:25.786Z,15.90
2023-10-20T18:46:13.782Z,16.00
2023-10-20T18:49:00.944Z,16.10
2023-10-20T18:51:48.514Z,16.00
2023-10-20T18:54:35.964Z,15.80
2023-10-20T18:57:23.599Z,15.80
2023-10-20T19:00:12.077Z,15.80
2023-10-20T19:03:00.261Z,15.90
2023-10-20T19:05:49.494Z,15.90
2023-10-20T19:08:38.807Z,15.90
2023-10-20T19:11:26.504Z,15.80
2023-10-20T19:14:14.071Z,15.70
2023-10-20T19:17:01.391Z,15.50
2023-10-20T19:19:49.747Z,15.30
2023-10-20T19:22:37.045Z,15.10
2023-10-20T19:25:24.450Z,15.00
2023-10-20T19:28:12.575Z,15.00
2023-10-20T19:31:04.345Z,14.90
2023-10-20T19:33:51.926Z,14.80
2023-10-20T19:36:39.450Z,14.60
2023-10-20T19:39:27.161Z,14.50
2023-10-20T19:42:14.661Z,14.40
2023-10-20T19:45:02.721Z,14.20
2023-10-20T19:47:50.407Z,14.10
2023-10-20T19:50:40.146Z,14.00
2023-10-20T19:53:27.811Z,14.00
2023-10-20T19:56:15.393Z,13.90
2023-10-20T19:59:02.984Z,13.90
2023-10-20T20:01:50.644Z,13.90
2023-10-20T20:04:39.027Z,13.90
2023-10-20T20:07:27.917Z,13.80
2023-10-20T20:10:15.349Z,13.80
2023-10-20T20:13:04.511Z,13.80
2023-10-20T20:15:52.051Z,13.90
2023-10-20T20:18:41.258Z,13.90
2023-10-20T20:21:28.371Z,14.00
2023-10-20T20:24:15.555Z,14.00
2023-10-20T20:27:03.201Z,14.10
2023-10-20T20:29:50.846Z,14.00
2023-10-20T20:32:38.234Z,14.10
2023-10-20T20:35:25.826Z,14.00
2023-10-20T20:38:13.415Z,14.00
2023-10-20T20:41:00.699Z,13.90
2023-10-20T20:43:48.167Z,13.80
2023-10-20T20:46:35.968Z,13.70
2023-10-20T20:49:23.123Z,13.60
2023-10-20T20:52:12.362Z,13.60
2023-10-20T20:55:00.635Z,13.60
2023-10-20T20:57:48.064Z,13.50
2023-10-20T21:00:36.611Z,13.50
2023-10-20T21:03:24.274Z,13.50
2023-10-20T21:06:12.154Z,13.50
2023-10-20T21:08:59.600Z,13.50
2023-10-20T21:11:47.414Z,13.60
2023-10-20T21:14:35.006Z,13.70
2023-10-20T21:17:22.402Z,13.90
2023-10-20T21:20:09.979Z,14.00
2023-10-20T21:22:57.293Z,14.10
2023-10-20T21:25:44.852Z,14.20
2023-10-20T21:28:32.640Z,14.40
2023-10-20T21:31:20.370Z,14.50
2023-10-20T21:34:07.598Z,14.50
2023-10-20T21:36:55.395Z,14.50
2023-10-20T21:39:42.776Z,14.50
2023-10-20T21:42:32.168Z,14.50
2023-10-20T21:45:19.514Z,14.60
2023-10-20T21:48:07.631Z,14.50
2023-10-20T21:51:06.610Z,14.50
2023-10-20T21:53:54.693Z,14.50
2023-10-20T21:56:42.286Z,14.50
2023-10-20T21:59:31.744Z,14.50
2023-10-20T22:02:20.276Z,14.60
2023-10-20T22:05:08.011Z,14.70
2023-10-20T22:07:55.568Z,14.80
2023-10-20T22:10:42.928Z,14.80
2023-10-20T22:13:30.347Z,14.80
2023-10-20T22:16:18.049Z,14.90
2023-10-20T22:19:05.813Z,14.90
2023-10-20T22:21:53.438Z,15.00
2023-10-20T22:24:40.556Z,14.90
2023-10-20T22:27:29.109Z,14.90
2023-10-20T22:30:16.813Z,14.90
2023-10-20T22:33:05.340Z,14.80
2023-10-20T22:35:52.312Z,14.90
2023-10-20T22:38:39.985Z,14.80
2023-10-20T22:41:28.334Z,14.90
2023-10-20T22:44:15.824Z,15.00
2023-10-20T22:47:03.170Z,15.00
2023-10-20T22:49:50.862Z,15.00
2023-10-20T22:52:38.450Z,15.00
2023-10-20T22:55:25.935Z,15.10
2023-10-20T22:58:13.273Z,15.10
2023-10-20T23:01:00.567Z,15.20
2023-10-20T23:03:48.311Z,15.20
2023-10-20T23:06:36.084Z,15.20
2023-10-20T23:09:23.665Z,15.20
2023-10-20T23:12:11.650Z,15.20
2023-10-20T23:14:59.643Z,15.30
2023-10-20T23:17:47.206Z,15.30
2023-10-20T23:20:34.526Z,15.30
2023-10-20T23:23:22.639Z,15.20
2023-10-20T23:26:10.359Z,15.20
2023-10-20T23:28:58.183Z,15.30
2023-10-20T23:31:45.807Z,15.30
2023-10-20T23:34:35.074Z,15.40
2023-10-20T23:37:23.012Z,15.40
2023-10-20T23:40:11.049Z,15.50
2023-10-20T23:42:58.448Z,15.50
2023-10-20T23:45:46.882Z,15.50
2023-10-20T23:48:34.775Z,15.60
2023-10-20T23:51:22.412Z,15.60
2023-10-20T23:54:09.883Z,15.60
2023-10-20T23:56:57.501Z,15.70
2023-10-20T23:59:44.923Z,15.70
